sensor_id;sensor_type;location;lat;lon;timestamp;temperature;humidity
44817;DHT22;30529;53.570;9.964;2023-03-01T00:02:05;2.10;99.90
44817;DHT22;30529;53.570;9.964;2023-03-01T00:04:31;2.10;99.90
44817;DHT22;30529;53.570;9.964;2023-03-01T00:06:57;2.20;99.90
44817;DHT22;30529;53.570;9.964;2023-03-01T00:09:23;2.30;99.90
44817;DHT22;30529;53.570;9.964;2023-03-01T00:11:49;2.40;99.90
44817;DHT22;30529;53.570;9.964;2023-03-01T00:14:15;2.30;99.90
44817;DHT22;30529;53.570;9.964;2023-03-01T00:16:45;2.30;99.90
44817;DHT22;30529;53.570;9.964;2023-03-01T00:19:14;2.20;99.90
44817;DHT22;30529;53.570;9.964;2023-03-01T00:21:41;2.20;99.90
44817;DHT22;30529;53.570;9.964;2023-03-01T00:24:07;2.10;99.90
44817;DHT22;30529;53.570;9.964;2023-03-01T00:26:33;2.10;99.90
44817;DHT22;30529;53.570;9.964;2023-03-01T00:28:59;2.10;99.90
44817;DHT22;30529;53.570;9.964;2023-03-01T00:31:30;2.10;99.90
44817;DHT22;30529;53.570;9.964;2023-03-01T00:33:58;2.10;99.90
44817;DHT22;30529;53.570;9.964;2023-03-01T00:36:27;2.00;99.90
44817;DHT22;30529;53.570;9.964;2023-03-01T00:38:54;2.00;99.90
44817;DHT22;30529;53.570;9.964;2023-03-01T00:41:20;2.00;99.90
44817;DHT22;30529;53.570;9.964;2023-03-01T00:43:49;2.00;99.90
44817;DHT22;30529;53.570;9.964;2023-03-01T00:46:18;2.00;99.90
44817;DHT22;30529;53.570;9.964;2023-03-01T00:48:45;2.00;99.90
44817;DHT22;30529;53.570;9.964;2023-03-01T00:51:16;2.00;99.90
44817;DHT22;30529;53.570;9.964;2023-03-01T00:53:44;1.90;99.90
44817;DHT22;30529;53.570;9.964;2023-03-01T00:56:11;1.90;99.90
44817;DHT22;30529;53.570;9.964;2023-03-01T00:58:38;1.90;99.90
44817;DHT22;30529;53.570;9.964;2023-03-01T01:01:13;1.90;99.90
44817;DHT22;30529;53.570;9.964;2023-03-01T01:03:48;1.90;99.90
44817;DHT22;30529;53.570;9.964;2023-03-01T01:06:20;1.90;99.90
44817;DHT22;30529;53.570;9.964;2023-03-01T01:08:48;1.90;99.90
44817;DHT22;30529;53.570;9.964;2023-03-01T01:11:14;1.90;99.90
44817;DHT22;30529;53.570;9.964;2023-03-01T01:13:41;1.90;99.90
44817;DHT22;30529;53.570;9.964;2023-03-01T01:16:08;1.90;99.90
44817;DHT22;30529;53.570;9.964;2023-03-01T01:18:34;1.90;99.90
44817;DHT22;30529;53.570;9.964;2023-03-01T01:21:05;1.90;99.90
44817;DHT22;30529;53.570;9.964;2023-03-01T01:23:31;1.90;99.90
44817;DHT22;30529;53.570;9.964;2023-03-01T01:26:02;1.80;99.90
44817;DHT22;30529;53.570;9.964;2023-03-01T01:28:29;1.90;99.90
44817;DHT22;30529;53.570;9.964;2023-03-01T01:30:55;1.90;99.90
44817;DHT22;30529;53.570;9.964;2023-03-01T01:33:20;1.90;99.90
44817;DHT22;30529;53.570;9.964;2023-03-01T01:35:46;1.80;99.90
44817;DHT22;30529;53.570;9.964;2023-03-01T01:38:13;1.80;99.90
44817;DHT22;30529;53.570;9.964;2023-03-01T01:40:49;1.80;99.90
44817;DHT22;30529;53.570;9.964;2023-03-01T01:43:23;1.80;99.90
44817;DHT22;30529;53.570;9.964;2023-03-01T01:45:49;1.80;99.90
44817;DHT22;30529;53.570;9.964;2023-03-01T01:48:24;1.70;99.90
44817;DHT22;30529;53.570;9.964;2023-03-01T01:50:59;1.80;99.90
44817;DHT22;30529;53.570;9.964;2023-03-01T01:53:26;1.80;99.90
44817;DHT22;30529;53.570;9.964;2023-03-01T01:55:55;1.90;99.90
44817;DHT22;30529;53.570;9.964;2023-03-01T01:58:24;1.90;99.90
44817;DHT22;30529;53.570;9.964;2023-03-01T02:00:51;1.90;99.90
44817;DHT22;30529;53.570;9.964;2023-03-01T02:03:28;2.00;99.90
44817;DHT22;30529;53.570;9.964;2023-03-01T02:06:12;2.10;99.90
44817;DHT22;30529;53.570;9.964;2023-03-01T02:08:40;2.20;99.90
44817;DHT22;30529;53.570;9.964;2023-03-01T02:11:08;2.10;99.90
44817;DHT22;30529;53.570;9.964;2023-03-01T02:13:36;2.10;99.90
44817;DHT22;30529;53.570;9.964;2023-03-01T02:16:13;2.00;99.90
44817;DHT22;30529;53.570;9.964;2023-03-01T02:18:41;1.90;99.90
44817;DHT22;30529;53.570;9.964;2023-03-01T02:21:21;1.90;99.90
44817;DHT22;30529;53.570;9.964;2023-03-01T02:23:50;1.90;99.90
44817;DHT22;30529;53.570;9.964;2023-03-01T02:26:42;1.90;99.90
44817;DHT22;30529;53.570;9.964;2023-03-01T02:29:11;1.90;99.90
44817;DHT22;30529;53.570;9.964;2023-03-01T02:31:37;2.00;99.90
44817;DHT22;30529;53.570;9.964;2023-03-01T02:34:13;2.00;99.90
44817;DHT22;30529;53.570;9.964;2023-03-01T02:37:00;2.10;99.90
44817;DHT22;30529;53.570;9.964;2023-03-01T02:39:30;2.20;99.90
44817;DHT22;30529;53.570;9.964;2023-03-01T02:41:57;2.30;99.90
44817;DHT22;30529;53.570;9.964;2023-03-01T02:44:24;2.40;99.90
44817;DHT22;30529;53.570;9.964;2023-03-01T02:46:52;2.40;99.90
44817;DHT22;30529;53.570;9.964;2023-03-01T02:49:25;2.30;99.90
44817;DHT22;30529;53.570;9.964;2023-03-01T02:54:59;2.20;99.90
44817;DHT22;30529;53.570;9.964;2023-03-01T02:57:27;2.20;99.90
44817;DHT22;30529;53.570;9.964;2023-03-01T02:59:55;2.10;99.90
44817;DHT22;30529;53.570;9.964;2023-03-01T03:02:24;2.10;99.90
44817;DHT22;30529;53.570;9.964;2023-03-01T03:05:08;2.00;99.90
44817;DHT22;30529;53.570;9.964;2023-03-01T03:07:37;1.90;99.90
44817;DHT22;30529;53.570;9.964;2023-03-01T03:10:05;1.90;99.90
44817;DHT22;30529;53.570;9.964;2023-03-01T03:12:32;1.80;99.90
44817;DHT22;30529;53.570;9.964;2023-03-01T03:14:58;1.70;99.90
44817;DHT22;30529;53.570;9.964;2023-03-01T03:17:24;1.80;99.90
44817;DHT22;30529;53.570;9.964;2023-03-01T03:19:50;1.80;99.90
44817;DHT22;30529;53.570;9.964;2023-03-01T03:22:16;1.80;99.90
44817;DHT22;30529;53.570;9.964;2023-03-01T03:24:42;1.90;99.90
44817;DHT22;30529;53.570;9.964;2023-03-01T03:27:08;2.00;99.90
44817;DHT22;30529;53.570;9.964;2023-03-01T03:29:34;2.10;99.90
44817;DHT22;30529;53.570;9.964;2023-03-01T03:32:00;2.20;99.90
44817;DHT22;30529;53.570;9.964;2023-03-01T03:34:26;2.30;99.90
44817;DHT22;30529;53.570;9.964;2023-03-01T03:36:55;2.40;99.90
44817;DHT22;30529;53.570;9.964;2023-03-01T03:39:28;2.50;99.90
44817;DHT22;30529;53.570;9.964;2023-03-01T03:41:54;2.60;99.90
44817;DHT22;30529;53.570;9.964;2023-03-01T03:44:21;2.60;99.90
44817;DHT22;30529;53.570;9.964;2023-03-01T03:46:47;2.60;99.90
44817;DHT22;30529;53.570;9.964;2023-03-01T03:49:13;2.60;99.90
44817;DHT22;30529;53.570;9.964;2023-03-01T03:51:39;2.70;99.90
44817;DHT22;30529;53.570;9.964;2023-03-01T03:54:05;2.70;99.90
44817;DHT22;30529;53.570;9.964;2023-03-01T03:56:31;2.70;99.90
44817;DHT22;30529;53.570;9.964;2023-03-01T03:58:57;2.70;99.90
44817;DHT22;30529;53.570;9.964;2023-03-01T04:01:23;2.80;99.90
44817;DHT22;30529;53.570;9.964;2023-03-01T04:03:49;2.80;99.90
44817;DHT22;30529;53.570;9.964;2023-03-01T04:06:20;2.80;99.90
44817;DHT22;30529;53.570;9.964;2023-03-01T04:08:46;2.80;99.90
44817;DHT22;30529;53.570;9.964;2023-03-01T04:11:12;2.90;99.90
44817;DHT22;30529;53.570;9.964;2023-03-01T04:13:56;2.90;99.90
44817;DHT22;30529;53.570;9.964;2023-03-01T04:16:22;3.00;99.90
44817;DHT22;30529;53.570;9.964;2023-03-01T04:18:49;3.00;99.90
44817;DHT22;30529;53.570;9.964;2023-03-01T04:21:15;3.00;99.90
44817;DHT22;30529;53.570;9.964;2023-03-01T04:23:41;3.10;99.90
44817;DHT22;30529;53.570;9.964;2023-03-01T04:26:09;3.10;99.90
44817;DHT22;30529;53.570;9.964;2023-03-01T04:28:38;3.10;99.90
44817;DHT22;30529;53.570;9.964;2023-03-01T04:31:08;3.10;99.90
44817;DHT22;30529;53.570;9.964;2023-03-01T04:33:46;3.20;99.90
44817;DHT22;30529;53.570;9.964;2023-03-01T04:36:14;3.20;99.90
44817;DHT22;30529;53.570;9.964;2023-03-01T04:38:41;3.20;99.90
44817;DHT22;30529;53.570;9.964;2023-03-01T04:41:10;3.20;99.90
44817;DHT22;30529;53.570;9.964;2023-03-01T04:43:37;3.20;99.90
44817;DHT22;30529;53.570;9.964;2023-03-01T04:46:09;3.20;99.90
44817;DHT22;30529;53.570;9.964;2023-03-01T04:48:37;3.30;99.90
44817;DHT22;30529;53.570;9.964;2023-03-01T04:51:03;3.30;99.90
44817;DHT22;30529;53.570;9.964;2023-03-01T04:53:30;3.30;99.90
44817;DHT22;30529;53.570;9.964;2023-03-01T04:55:56;3.30;99.90
44817;DHT22;30529;53.570;9.964;2023-03-01T04:58:26;3.30;99.90
44817;DHT22;30529;53.570;9.964;2023-03-01T05:00:53;3.30;99.90
44817;DHT22;30529;53.570;9.964;2023-03-01T05:03:20;3.40;99.90
44817;DHT22;30529;53.570;9.964;2023-03-01T05:05:47;3.40;99.90
44817;DHT22;30529;53.570;9.964;2023-03-01T05:08:14;3.40;99.90
44817;DHT22;30529;53.570;9.964;2023-03-01T05:10:50;3.40;99.90
44817;DHT22;30529;53.570;9.964;2023-03-01T05:13:18;3.40;99.90
44817;DHT22;30529;53.570;9.964;2023-03-01T05:15:59;3.40;99.90
44817;DHT22;30529;53.570;9.964;2023-03-01T05:18:26;3.40;99.90
44817;DHT22;30529;53.570;9.964;2023-03-01T05:20:56;3.40;99.90
44817;DHT22;30529;53.570;9.964;2023-03-01T05:23:26;3.40;99.90
44817;DHT22;30529;53.570;9.964;2023-03-01T05:25:52;3.40;99.90
44817;DHT22;30529;53.570;9.964;2023-03-01T05:28:19;3.40;99.90
44817;DHT22;30529;53.570;9.964;2023-03-01T05:30:46;3.30;99.90
44817;DHT22;30529;53.570;9.964;2023-03-01T05:33:12;3.40;99.90
44817;DHT22;30529;53.570;9.964;2023-03-01T05:35:43;3.40;99.90
44817;DHT22;30529;53.570;9.964;2023-03-01T05:38:10;3.40;99.90
44817;DHT22;30529;53.570;9.964;2023-03-01T05:40:45;3.50;99.90
44817;DHT22;30529;53.570;9.964;2023-03-01T05:43:13;3.50;99.90
44817;DHT22;30529;53.570;9.964;2023-03-01T05:45:40;3.50;99.90
44817;DHT22;30529;53.570;9.964;2023-03-01T05:48:07;3.50;99.90
44817;DHT22;30529;53.570;9.964;2023-03-01T05:50:37;3.60;99.90
44817;DHT22;30529;53.570;9.964;2023-03-01T05:53:11;3.50;99.90
44817;DHT22;30529;53.570;9.964;2023-03-01T05:55:38;3.50;99.90
44817;DHT22;30529;53.570;9.964;2023-03-01T05:58:10;3.50;99.90
44817;DHT22;30529;53.570;9.964;2023-03-01T06:00:36;3.50;99.90
44817;DHT22;30529;53.570;9.964;2023-03-01T06:03:03;3.50;99.90
44817;DHT22;30529;53.570;9.964;2023-03-01T06:05:29;3.40;99.90
44817;DHT22;30529;53.570;9.964;2023-03-01T06:07:58;3.40;99.90
44817;DHT22;30529;53.570;9.964;2023-03-01T06:10:24;3.40;99.90
44817;DHT22;30529;53.570;9.964;2023-03-01T06:12:50;3.40;99.90
44817;DHT22;30529;53.570;9.964;2023-03-01T06:15:17;3.40;99.90
44817;DHT22;30529;53.570;9.964;2023-03-01T06:17:44;3.40;99.90
44817;DHT22;30529;53.570;9.964;2023-03-01T06:20:17;3.40;99.90
44817;DHT22;30529;53.570;9.964;2023-03-01T06:22:44;3.40;99.90
44817;DHT22;30529;53.570;9.964;2023-03-01T06:25:12;3.30;99.90
44817;DHT22;30529;53.570;9.964;2023-03-01T06:27:39;3.30;99.90
44817;DHT22;30529;53.570;9.964;2023-03-01T06:30:07;3.30;99.90
44817;DHT22;30529;53.570;9.964;2023-03-01T06:32:33;3.30;99.90
44817;DHT22;30529;53.570;9.964;2023-03-01T06:34:59;3.30;99.90
44817;DHT22;30529;53.570;9.964;2023-03-01T06:37:26;3.30;99.90
44817;DHT22;30529;53.570;9.964;2023-03-01T06:39:52;3.30;99.90
44817;DHT22;30529;53.570;9.964;2023-03-01T06:42:18;3.50;99.90
44817;DHT22;30529;53.570;9.964;2023-03-01T06:44:46;3.60;99.90
44817;DHT22;30529;53.570;9.964;2023-03-01T06:47:12;3.70;99.90
44817;DHT22;30529;53.570;9.964;2023-03-01T06:49:38;3.70;99.90
44817;DHT22;30529;53.570;9.964;2023-03-01T06:52:15;3.80;99.90
44817;DHT22;30529;53.570;9.964;2023-03-01T06:54:41;3.90;99.90
44817;DHT22;30529;53.570;9.964;2023-03-01T06:57:10;3.90;99.90
44817;DHT22;30529;53.570;9.964;2023-03-01T06:59:36;4.00;99.90
44817;DHT22;30529;53.570;9.964;2023-03-01T07:02:02;4.10;99.90
44817;DHT22;30529;53.570;9.964;2023-03-01T07:04:28;4.20;99.90
44817;DHT22;30529;53.570;9.964;2023-03-01T07:06:56;4.20;99.90
44817;DHT22;30529;53.570;9.964;2023-03-01T07:09:23;4.20;99.90
44817;DHT22;30529;53.570;9.964;2023-03-01T07:11:50;4.20;99.90
44817;DHT22;30529;53.570;9.964;2023-03-01T07:14:16;4.20;99.90
44817;DHT22;30529;53.570;9.964;2023-03-01T07:16:42;4.20;99.90
44817;DHT22;30529;53.570;9.964;2023-03-01T07:19:08;4.30;99.90
44817;DHT22;30529;53.570;9.964;2023-03-01T07:21:34;4.30;99.90
44817;DHT22;30529;53.570;9.964;2023-03-01T07:24:00;4.40;99.90
44817;DHT22;30529;53.570;9.964;2023-03-01T07:26:26;4.40;99.90
44817;DHT22;30529;53.570;9.964;2023-03-01T07:28:52;4.30;99.90
44817;DHT22;30529;53.570;9.964;2023-03-01T07:31:18;4.30;99.90
44817;DHT22;30529;53.570;9.964;2023-03-01T07:33:44;4.20;99.90
44817;DHT22;30529;53.570;9.964;2023-03-01T07:36:10;4.30;99.90
44817;DHT22;30529;53.570;9.964;2023-03-01T07:38:36;4.30;99.90
44817;DHT22;30529;53.570;9.964;2023-03-01T07:41:03;4.30;99.90
44817;DHT22;30529;53.570;9.964;2023-03-01T07:43:30;4.30;99.90
44817;DHT22;30529;53.570;9.964;2023-03-01T07:46:00;4.30;99.90
44817;DHT22;30529;53.570;9.964;2023-03-01T07:48:31;4.30;99.90
44817;DHT22;30529;53.570;9.964;2023-03-01T07:51:01;4.30;99.90
44817;DHT22;30529;53.570;9.964;2023-03-01T07:53:28;4.40;99.90
44817;DHT22;30529;53.570;9.964;2023-03-01T07:56:06;4.50;99.90
44817;DHT22;30529;53.570;9.964;2023-03-01T07:58:34;4.60;99.90
44817;DHT22;30529;53.570;9.964;2023-03-01T08:01:06;4.60;99.90
44817;DHT22;30529;53.570;9.964;2023-03-01T08:03:33;4.50;99.90
44817;DHT22;30529;53.570;9.964;2023-03-01T08:06:01;4.50;99.90
44817;DHT22;30529;53.570;9.964;2023-03-01T08:08:27;4.40;99.90
44817;DHT22;30529;53.570;9.964;2023-03-01T08:10:56;4.40;99.90
44817;DHT22;30529;53.570;9.964;2023-03-01T08:13:22;4.50;99.90
44817;DHT22;30529;53.570;9.964;2023-03-01T08:15:49;4.60;99.90
44817;DHT22;30529;53.570;9.964;2023-03-01T08:18:16;4.70;99.90
44817;DHT22;30529;53.570;9.964;2023-03-01T08:20:42;4.70;99.90
44817;DHT22;30529;53.570;9.964;2023-03-01T08:23:08;4.80;99.90
44817;DHT22;30529;53.570;9.964;2023-03-01T08:25:34;4.80;99.90
44817;DHT22;30529;53.570;9.964;2023-03-01T08:28:01;4.90;99.90
44817;DHT22;30529;53.570;9.964;2023-03-01T08:30:27;5.10;99.90
44817;DHT22;30529;53.570;9.964;2023-03-01T08:32:53;5.20;99.90
44817;DHT22;30529;53.570;9.964;2023-03-01T08:35:19;5.40;99.90
44817;DHT22;30529;53.570;9.964;2023-03-01T08:37:46;5.40;99.90
44817;DHT22;30529;53.570;9.964;2023-03-01T08:40:13;5.40;99.90
44817;DHT22;30529;53.570;9.964;2023-03-01T08:42:42;5.50;99.90
44817;DHT22;30529;53.570;9.964;2023-03-01T08:45:09;5.50;99.90
44817;DHT22;30529;53.570;9.964;2023-03-01T08:47:36;5.30;99.90
44817;DHT22;30529;53.570;9.964;2023-03-01T08:50:03;5.20;99.90
44817;DHT22;30529;53.570;9.964;2023-03-01T08:52:29;5.30;99.90
44817;DHT22;30529;53.570;9.964;2023-03-01T08:54:56;5.40;99.90
44817;DHT22;30529;53.570;9.964;2023-03-01T08:57:25;5.60;99.90
44817;DHT22;30529;53.570;9.964;2023-03-01T08:59:51;5.70;99.90
44817;DHT22;30529;53.570;9.964;2023-03-01T09:02:18;5.70;99.90
44817;DHT22;30529;53.570;9.964;2023-03-01T09:04:44;5.80;99.90
44817;DHT22;30529;53.570;9.964;2023-03-01T09:07:10;5.90;99.90
44817;DHT22;30529;53.570;9.964;2023-03-01T09:09:37;5.80;99.90
44817;DHT22;30529;53.570;9.964;2023-03-01T09:12:03;5.90;99.90
44817;DHT22;30529;53.570;9.964;2023-03-01T09:14:30;6.10;99.90
44817;DHT22;30529;53.570;9.964;2023-03-01T09:16:56;6.20;99.90
44817;DHT22;30529;53.570;9.964;2023-03-01T09:19:22;6.30;99.90
44817;DHT22;30529;53.570;9.964;2023-03-01T09:21:48;6.30;99.90
44817;DHT22;30529;53.570;9.964;2023-03-01T09:24:23;6.30;99.90
44817;DHT22;30529;53.570;9.964;2023-03-01T09:26:50;6.40;99.90
44817;DHT22;30529;53.570;9.964;2023-03-01T09:29:18;6.50;99.90
44817;DHT22;30529;53.570;9.964;2023-03-01T09:31:44;6.20;99.90
44817;DHT22;30529;53.570;9.964;2023-03-01T09:34:11;6.10;99.90
44817;DHT22;30529;53.570;9.964;2023-03-01T09:36:37;6.10;99.90
44817;DHT22;30529;53.570;9.964;2023-03-01T09:39:03;6.20;99.90
44817;DHT22;30529;53.570;9.964;2023-03-01T09:47:43;6.30;99.90
44817;DHT22;30529;53.570;9.964;2023-03-01T09:52:43;6.60;99.90
44817;DHT22;30529;53.570;9.964;2023-03-01T09:55:25;6.60;99.90
44817;DHT22;30529;53.570;9.964;2023-03-01T09:58:04;6.50;99.90
44817;DHT22;30529;53.570;9.964;2023-03-01T10:00:47;6.30;99.90
44817;DHT22;30529;53.570;9.964;2023-03-01T10:03:21;6.10;99.90
44817;DHT22;30529;53.570;9.964;2023-03-01T10:05:56;5.90;99.90
44817;DHT22;30529;53.570;9.964;2023-03-01T10:08:34;5.50;99.90
44817;DHT22;30529;53.570;9.964;2023-03-01T10:11:05;5.30;99.90
44817;DHT22;30529;53.570;9.964;2023-03-01T10:13:58;5.20;99.90
44817;DHT22;30529;53.570;9.964;2023-03-01T10:16:34;5.20;99.90
44817;DHT22;30529;53.570;9.964;2023-03-01T10:19:04;5.00;99.90
44817;DHT22;30529;53.570;9.964;2023-03-01T10:21:39;4.90;99.90
44817;DHT22;30529;53.570;9.964;2023-03-01T10:24:24;5.00;99.90
44817;DHT22;30529;53.570;9.964;2023-03-01T10:26:55;4.90;99.90
44817;DHT22;30529;53.570;9.964;2023-03-01T10:29:34;4.80;99.90
44817;DHT22;30529;53.570;9.964;2023-03-01T10:32:04;4.80;99.90
44817;DHT22;30529;53.570;9.964;2023-03-01T10:34:34;4.90;99.90
44817;DHT22;30529;53.570;9.964;2023-03-01T10:39:57;4.90;99.90
44817;DHT22;30529;53.570;9.964;2023-03-01T10:42:32;5.00;99.90
44817;DHT22;30529;53.570;9.964;2023-03-01T10:48:16;5.00;99.90
44817;DHT22;30529;53.570;9.964;2023-03-01T10:51:19;5.00;99.90
44817;DHT22;30529;53.570;9.964;2023-03-01T10:53:52;5.10;99.90
44817;DHT22;30529;53.570;9.964;2023-03-01T10:56:31;5.00;99.90
44817;DHT22;30529;53.570;9.964;2023-03-01T10:59:26;5.00;99.90
44817;DHT22;30529;53.570;9.964;2023-03-01T11:05:22;5.00;99.90
44817;DHT22;30529;53.570;9.964;2023-03-01T11:07:54;4.90;99.90
44817;DHT22;30529;53.570;9.964;2023-03-01T11:10:28;5.00;99.90
44817;DHT22;30529;53.570;9.964;2023-03-01T11:13:27;5.00;99.90
44817;DHT22;30529;53.570;9.964;2023-03-01T11:16:12;5.00;99.90
44817;DHT22;30529;53.570;9.964;2023-03-01T11:18:43;5.10;99.90
44817;DHT22;30529;53.570;9.964;2023-03-01T11:21:30;5.10;99.90
44817;DHT22;30529;53.570;9.964;2023-03-01T11:24:23;5.10;99.90
44817;DHT22;30529;53.570;9.964;2023-03-01T11:27:03;5.20;99.90
44817;DHT22;30529;53.570;9.964;2023-03-01T11:32:10;5.30;99.90
44817;DHT22;30529;53.570;9.964;2023-03-01T11:34:57;5.30;99.90
44817;DHT22;30529;53.570;9.964;2023-03-01T11:40:44;5.40;99.90
44817;DHT22;30529;53.570;9.964;2023-03-01T11:49:41;5.50;99.90
44817;DHT22;30529;53.570;9.964;2023-03-01T11:58:43;5.70;99.90
44817;DHT22;30529;53.570;9.964;2023-03-01T12:06:52;5.80;99.90
44817;DHT22;30529;53.570;9.964;2023-03-01T12:12:33;5.80;99.90
44817;DHT22;30529;53.570;9.964;2023-03-01T12:15:28;5.90;99.90
44817;DHT22;30529;53.570;9.964;2023-03-01T12:20:56;6.00;99.90
44817;DHT22;30529;53.570;9.964;2023-03-01T12:27:01;6.00;99.90
44817;DHT22;30529;53.570;9.964;2023-03-01T12:29:58;6.10;99.90
44817;DHT22;30529;53.570;9.964;2023-03-01T12:32:34;6.10;99.90
44817;DHT22;30529;53.570;9.964;2023-03-01T12:41:06;6.30;99.90
44817;DHT22;30529;53.570;9.964;2023-03-01T12:43:54;6.30;99.90
44817;DHT22;30529;53.570;9.964;2023-03-01T12:49:27;6.30;99.90
44817;DHT22;30529;53.570;9.964;2023-03-01T12:52:07;6.30;99.90
44817;DHT22;30529;53.570;9.964;2023-03-01T12:54:40;6.40;99.90
44817;DHT22;30529;53.570;9.964;2023-03-01T12:57:25;6.40;99.90
44817;DHT22;30529;53.570;9.964;2023-03-01T13:06:08;6.50;99.90
44817;DHT22;30529;53.570;9.964;2023-03-01T13:08:43;6.40;99.90
44817;DHT22;30529;53.570;9.964;2023-03-01T13:11:28;6.40;99.90
44817;DHT22;30529;53.570;9.964;2023-03-01T13:16:55;6.40;99.90
44817;DHT22;30529;53.570;9.964;2023-03-01T13:19:37;6.40;99.90
44817;DHT22;30529;53.570;9.964;2023-03-01T13:22:38;6.40;99.90
44817;DHT22;30529;53.570;9.964;2023-03-01T13:25:17;6.40;99.90
44817;DHT22;30529;53.570;9.964;2023-03-01T13:27:46;6.40;99.90
44817;DHT22;30529;53.570;9.964;2023-03-01T13:30:41;6.40;99.90
44817;DHT22;30529;53.570;9.964;2023-03-01T13:33:42;6.40;99.90
44817;DHT22;30529;53.570;9.964;2023-03-01T13:41:58;6.50;99.90
44817;DHT22;30529;53.570;9.964;2023-03-01T13:44:37;6.50;99.90
44817;DHT22;30529;53.570;9.964;2023-03-01T13:50:02;6.40;99.90
44817;DHT22;30529;53.570;9.964;2023-03-01T13:54:59;6.40;99.90
44817;DHT22;30529;53.570;9.964;2023-03-01T13:57:34;6.40;99.90
44817;DHT22;30529;53.570;9.964;2023-03-01T14:00:04;6.40;99.90
44817;DHT22;30529;53.570;9.964;2023-03-01T14:03:13;6.40;99.90
44817;DHT22;30529;53.570;9.964;2023-03-01T14:05:56;6.40;99.90
44817;DHT22;30529;53.570;9.964;2023-03-01T14:08:29;6.40;99.90
44817;DHT22;30529;53.570;9.964;2023-03-01T14:14:21;6.50;99.90
44817;DHT22;30529;53.570;9.964;2023-03-01T14:17:24;6.50;99.90
44817;DHT22;30529;53.570;9.964;2023-03-01T14:20:16;6.50;99.90
44817;DHT22;30529;53.570;9.964;2023-03-01T14:22:58;6.50;99.90
44817;DHT22;30529;53.570;9.964;2023-03-01T14:25:37;6.50;99.90
44817;DHT22;30529;53.570;9.964;2023-03-01T14:28:35;6.50;99.90
44817;DHT22;30529;53.570;9.964;2023-03-01T14:31:42;6.50;99.90
44817;DHT22;30529;53.570;9.964;2023-03-01T14:34:26;6.50;99.90
44817;DHT22;30529;53.570;9.964;2023-03-01T14:37:32;6.50;99.90
44817;DHT22;30529;53.570;9.964;2023-03-01T14:40:00;6.50;99.90
44817;DHT22;30529;53.570;9.964;2023-03-01T14:42:42;6.50;99.90
44817;DHT22;30529;53.570;9.964;2023-03-01T14:45:29;6.50;99.90
44817;DHT22;30529;53.570;9.964;2023-03-01T14:48:06;6.50;99.90
44817;DHT22;30529;53.570;9.964;2023-03-01T14:50:42;6.40;99.90
44817;DHT22;30529;53.570;9.964;2023-03-01T14:53:26;6.50;99.90
44817;DHT22;30529;53.570;9.964;2023-03-01T14:56:03;6.50;99.90
44817;DHT22;30529;53.570;9.964;2023-03-01T14:58:41;6.50;99.90
44817;DHT22;30529;53.570;9.964;2023-03-01T15:01:19;6.50;99.90
44817;DHT22;30529;53.570;9.964;2023-03-01T15:03:49;6.40;99.90
44817;DHT22;30529;53.570;9.964;2023-03-01T15:06:22;6.40;99.90
44817;DHT22;30529;53.570;9.964;2023-03-01T15:08:52;6.40;99.90
44817;DHT22;30529;53.570;9.964;2023-03-01T15:11:34;6.40;99.90
44817;DHT22;30529;53.570;9.964;2023-03-01T15:14:28;6.40;99.90
44817;DHT22;30529;53.570;9.964;2023-03-01T15:16:57;6.50;99.90
44817;DHT22;30529;53.570;9.964;2023-03-01T15:19:27;6.50;99.90
44817;DHT22;30529;53.570;9.964;2023-03-01T15:22:03;6.50;99.90
44817;DHT22;30529;53.570;9.964;2023-03-01T15:24:50;6.50;99.90
44817;DHT22;30529;53.570;9.964;2023-03-01T15:27:23;6.40;99.90
44817;DHT22;30529;53.570;9.964;2023-03-01T15:30:02;6.40;99.90
44817;DHT22;30529;53.570;9.964;2023-03-01T15:32:37;6.40;99.90
44817;DHT22;30529;53.570;9.964;2023-03-01T15:35:45;6.40;99.90
44817;DHT22;30529;53.570;9.964;2023-03-01T15:38:52;6.40;99.90
44817;DHT22;30529;53.570;9.964;2023-03-01T15:41:50;6.40;99.90
44817;DHT22;30529;53.570;9.964;2023-03-01T15:44:26;6.40;99.90
44817;DHT22;30529;53.570;9.964;2023-03-01T15:46:55;6.40;99.90
44817;DHT22;30529;53.570;9.964;2023-03-01T15:49:44;6.40;99.90
44817;DHT22;30529;53.570;9.964;2023-03-01T15:52:39;6.40;99.90
44817;DHT22;30529;53.570;9.964;2023-03-01T15:55:27;6.40;99.90
44817;DHT22;30529;53.570;9.964;2023-03-01T15:58:36;6.40;99.90
44817;DHT22;30529;53.570;9.964;2023-03-01T16:01:12;6.30;99.90
44817;DHT22;30529;53.570;9.964;2023-03-01T16:03:52;6.30;99.90
44817;DHT22;30529;53.570;9.964;2023-03-01T16:06:28;6.30;99.90
44817;DHT22;30529;53.570;9.964;2023-03-01T16:08:58;6.20;99.90
44817;DHT22;30529;53.570;9.964;2023-03-01T16:11:37;6.20;99.90
44817;DHT22;30529;53.570;9.964;2023-03-01T16:14:13;6.20;99.90
44817;DHT22;30529;53.570;9.964;2023-03-01T16:16:49;6.10;99.90
44817;DHT22;30529;53.570;9.964;2023-03-01T16:22:22;6.10;99.90
44817;DHT22;30529;53.570;9.964;2023-03-01T16:25:01;6.00;99.90
44817;DHT22;30529;53.570;9.964;2023-03-01T16:27:48;5.90;99.90
44817;DHT22;30529;53.570;9.964;2023-03-01T16:30:46;5.90;99.90
44817;DHT22;30529;53.570;9.964;2023-03-01T16:33:31;5.80;99.90
44817;DHT22;30529;53.570;9.964;2023-03-01T16:36:22;5.80;99.90
44817;DHT22;30529;53.570;9.964;2023-03-01T16:38:55;5.80;99.90
44817;DHT22;30529;53.570;9.964;2023-03-01T16:41:23;5.80;99.90
44817;DHT22;30529;53.570;9.964;2023-03-01T16:43:50;5.70;99.90
44817;DHT22;30529;53.570;9.964;2023-03-01T16:46:22;5.70;99.90
44817;DHT22;30529;53.570;9.964;2023-03-01T16:48:49;5.70;99.90
44817;DHT22;30529;53.570;9.964;2023-03-01T16:51:15;5.70;99.90
44817;DHT22;30529;53.570;9.964;2023-03-01T16:53:42;5.60;99.90
44817;DHT22;30529;53.570;9.964;2023-03-01T16:56:10;5.60;99.90
44817;DHT22;30529;53.570;9.964;2023-03-01T16:58:38;5.60;99.90
44817;DHT22;30529;53.570;9.964;2023-03-01T17:01:10;5.60;99.90
44817;DHT22;30529;53.570;9.964;2023-03-01T17:03:37;5.50;99.90
44817;DHT22;30529;53.570;9.964;2023-03-01T17:06:08;5.50;99.90
44817;DHT22;30529;53.570;9.964;2023-03-01T17:08:36;5.50;99.90
44817;DHT22;30529;53.570;9.964;2023-03-01T17:11:08;5.50;99.90
44817;DHT22;30529;53.570;9.964;2023-03-01T17:13:36;5.50;99.90
44817;DHT22;30529;53.570;9.964;2023-03-01T17:16:08;5.40;99.90
44817;DHT22;30529;53.570;9.964;2023-03-01T17:18:34;5.40;99.90
44817;DHT22;30529;53.570;9.964;2023-03-01T17:21:01;5.30;99.90
44817;DHT22;30529;53.570;9.964;2023-03-01T17:23:28;5.20;99.90
44817;DHT22;30529;53.570;9.964;2023-03-01T17:25:54;5.20;99.90
44817;DHT22;30529;53.570;9.964;2023-03-01T17:28:22;5.20;99.90
44817;DHT22;30529;53.570;9.964;2023-03-01T17:30:48;5.20;99.90
44817;DHT22;30529;53.570;9.964;2023-03-01T17:33:14;5.00;99.90
44817;DHT22;30529;53.570;9.964;2023-03-01T17:35:40;5.00;99.90
44817;DHT22;30529;53.570;9.964;2023-03-01T17:38:06;4.90;99.90
44817;DHT22;30529;53.570;9.964;2023-03-01T17:40:33;5.00;99.90
44817;DHT22;30529;53.570;9.964;2023-03-01T17:43:00;4.90;99.90
44817;DHT22;30529;53.570;9.964;2023-03-01T17:45:32;4.90;99.90
44817;DHT22;30529;53.570;9.964;2023-03-01T17:48:00;4.90;99.90